Enter the Airport ICAO Code

Search by Airport or City

Current Weather

LESO | San Sebastián Airport

San Sebastián, Basque Country, Spain

Last Update 2 Hours Ago

Sky with Few Clouds

Temperature of 20 ºC

Light to Moderate Winds from South

Temperature

20 ºC

Dew Point Temperature

17 ºC

Relative Humidity

82.96 %

Wind Direction

South (200º, Without Significant Variations)

Wind Velocity

11 km/h (06 kt)

Gusts

None

Visibility

Greater than 10 Kilometers

Sea Level Pressure

1017 hPa (Hectopascals)

Layers of Clouds

5% to 30% of Sky Covered from 1829 mts (6000 ft) Above Ground Level.

METAR LESO 202100Z AUTO 20006KT 9999 FEW060 20/17 Q1017

Weather Forecast

LESO | San Sebastián Airport

San Sebastián, Basque Country, Spain

Forecast valid for the next 19 Hours

In the next 3 hours it is expected the begining of:

Moderate Winds from West

Maximum Temperature

26 ºC in -5 Hours

Minimum Temperature

15 ºC in 18 Hours

TAF LESO 201758Z 2018/2118 22009KT 9999 FEW040 TX26/2018Z TN15/2117Z BECMG 2022/2102 28012KT PROB30 2018/2106 28015G25KT 3000 RA BKN010